sensor_id;sensor_type;location;lat;lon;timestamp;pressure;altitude;pressure_sealevel;temperature;humidity
71642;BME280;60657;50.122;14.468;2022-12-19T00:02:41;99989.28177793599;;;-5.540550850690472;79.30937666895552
71642;BME280;60657;50.122;14.468;2022-12-19T00:05:49;99987.70358690506;;;-5.545891508354316;79.2826733806363
71642;BME280;60657;50.122;14.468;2022-12-19T00:08:58;99977.50728967272;;;-5.481803616388191;79.67559319447624
71642;BME280;60657;50.122;14.468;2022-12-19T00:12:06;99979.8121267786;;;-5.505836575875485;79.55733577477683
71642;BME280;60657;50.122;14.468;2022-12-19T00:15:17;99969.83960512668;;;-5.535210193026629;80.04371709773403
71642;BME280;60657;50.122;14.468;2022-12-19T00:18:25;99961.49254416964;;;-5.415045395590141;79.87396047913329
71642;BME280;60657;50.122;14.468;2022-12-19T00:21:38;99955.77901107488;;;-5.407034409094379;79.70038910505836
71642;BME280;60657;50.122;14.468;2022-12-19T00:24:46;99954.78157418154;;;-5.473792629892422;79.81483176928359
71642;BME280;60657;50.122;14.468;2022-12-19T00:27:55;99955.25806093779;;;-5.532539864194703;80.17341878385595
71642;BME280;60657;50.122;14.468;2022-12-19T00:31:03;99958.91562952244;;;-5.5271992065308595;80.23636224917983
71642;BME280;60657;50.122;14.468;2022-12-19T00:34:12;99958.68804722912;;;-5.393682764934766;80.34889753566796
71642;BME280;60657;50.122;14.468;2022-12-19T00:37:22;99977.9824121397;;;-5.513847562371254;80.64835584039064
71642;BME280;60657;50.122;14.468;2022-12-19T00:40:30;99975.55212353285;;;-5.505836575875485;80.8581673914702
71642;BME280;60657;50.122;14.468;2022-12-19T00:43:38;99957.46192798563;;;-5.4684519722285785;80.74944686045625
71642;BME280;60657;50.122;14.468;2022-12-19T00:46:47;99969.26280973494;;;-5.431067368581672;80.5949492637522
71642;BME280;60657;50.122;14.468;2022-12-19T00:49:55;99951.04148322402;;;-5.393682764934766;80.73990997177081
71642;BME280;60657;50.122;14.468;2022-12-19T00:53:05;99952.76039992296;;;-5.3295948729686415;80.69604028381781
71642;BME280;60657;50.122;14.468;2022-12-19T00:56:14;99950.0942395461;;;-5.214770733196005;80.59113450827802
71642;BME280;60657;50.122;14.468;2022-12-19T00:59:24;99969.43593613563;;;-5.075913633936068;80.23064011596857
71642;BME280;60657;50.122;14.468;2022-12-19T01:02:32;99955.31538422871;;;-5.3295948729686415;80.63881895170519
71642;BME280;60657;50.122;14.468;2022-12-19T01:05:40;99971.25079044426;;;-5.246814679179067;80.65598535133898
71642;BME280;60657;50.122;14.468;2022-12-19T01:08:49;99943.04521661307;;;-5.225452048523692;80.37560082398718
71642;BME280;60657;50.122;14.468;2022-12-19T01:11:57;99955.9197265817;;;-5.252155336842911;80.61402304112306
71642;BME280;60657;50.122;14.468;2022-12-19T01:15:06;99939.72110224525;;;-5.4684519722285785;81.3006790264744
71642;BME280;60657;50.122;14.468;2022-12-19T01:18:14;99944.95544560881;;;-5.391012436102848;81.32356755931944
71642;BME280;60657;50.122;14.468;2022-12-19T01:21:23;99936.2225530377;;;-5.286869611657892;80.88487067978943
71642;BME280;60657;50.122;14.468;2022-12-19T01:24:33;99927.46021578659;;;-5.407034409094379;81.12901503013657
71642;BME280;60657;50.122;14.468;2022-12-19T01:27:41;99928.44698330224;;;-5.281528953994048;81.05844205386435
71642;BME280;60657;50.122;14.468;2022-12-19T01:30:50;99925.15291358586;;;-5.393682764934766;80.89822232394903
71642;BME280;60657;50.122;14.468;2022-12-19T01:33:59;99901.66904196206;;;-5.575265125505453;81.78515297169452
71642;BME280;60657;50.122;14.468;2022-12-19T01:37:07;99874.56702950092;;;-5.607309071488515;81.8461890592813
71642;BME280;60657;50.122;14.468;2022-12-19T01:40:16;99884.41066445476;;;-5.545891508354316;81.91485465781643
71642;BME280;60657;50.122;14.468;2022-12-19T01:43:24;99896.83323418658;;;-5.39902342259861;81.51812008850233
71642;BME280;60657;50.122;14.468;2022-12-19T01:46:36;99891.97140206069;;;-5.3295948729686415;81.6401922636759
71642;BME280;60657;50.122;14.468;2022-12-19T01:49:48;99907.89980177657;;;-5.292210269321735;81.45708400091554
71642;BME280;60657;50.122;14.468;2022-12-19T01:52:56;99904.13778675103;;;-5.180056458381017;81.31784542610819
71642;BME280;60657;50.122;14.468;2022-12-19T01:56:06;99907.54267538794;;;-5.105287251087205;81.08514534218357
71642;BME280;60657;50.122;14.468;2022-12-19T01:59:18;99899.99992985929;;;-5.022507057297631;80.69985503929198
71642;BME280;60657;50.122;14.468;2022-12-19T02:02:33;99886.01927450275;;;-5.289539940489817;81.57534142061493
71642;BME280;60657;50.122;14.468;2022-12-19T02:05:45;99885.77823988603;;;-5.238803692683298;81.84046692607004
71642;BME280;60657;50.122;14.468;2022-12-19T02:08:53;99893.9236888363;;;-5.257495994506755;81.59060044251163
71642;BME280;60657;50.122;14.468;2022-12-19T02:12:02;99889.17799161607;;;-5.027847714961474;81.26062409399557
71642;BME280;60657;50.122;14.468;2022-12-19T02:15:12;99873.60336669104;;;-4.937056534676124;80.79331654840925
71642;BME280;60657;50.122;14.468;2022-12-19T02:18:26;99866.43669219282;;;-5.019836728465705;80.84672312504769
71642;BME280;60657;50.122;14.468;2022-12-19T02:21:48;99879.20776623847;;;-5.086594949263755;80.95925841153581
71642;BME280;60657;50.122;14.468;2022-12-19T02:25:11;99863.16580512252;;;-5.228122377355611;81.30449378194858
71642;BME280;60657;50.122;14.468;2022-12-19T02:28:46;99857.56767369088;;;-5.113298237582974;81.0374608987564
71642;BME280;60657;50.122;14.468;2022-12-19T02:32:10;99848.82257841689;;;-5.302891584649423;81.64400701915007
71642;BME280;60657;50.122;14.468;2022-12-19T02:35:30;99849.67353426243;;;-5.3295948729686415;81.77943083848325
71642;BME280;60657;50.122;14.468;2022-12-19T02:38:49;99842.1258132879;;;-5.174715800717173;81.61730373083086
71642;BME280;60657;50.122;14.468;2022-12-19T02:42:04;99846.84508883202;;;-4.923704890516518;81.11757076371404
71642;BME280;60657;50.122;14.468;2022-12-19T02:45:18;99844.90518960892;;;-4.963759822995343;81.05653467612726
71642;BME280;60657;50.122;14.468;2022-12-19T02:48:30;99852.4414544865;;;-5.0144960708018615;80.9478141451133
71642;BME280;60657;50.122;14.468;2022-12-19T02:51:40;99846.84508883202;;;-4.987792782482643;80.86007476920729
71642;BME280;60657;50.122;14.468;2022-12-19T02:54:49;99836.8585107558;;;-4.875638971541925;80.6521705958648
71642;BME280;60657;50.122;14.468;2022-12-19T02:58:07;99844.54655201228;;;-5.164034485389486;80.8162050812543
71642;BME280;60657;50.122;14.468;2022-12-19T03:01:34;99846.85902000542;;;-4.987792782482643;80.84290836957351
71642;BME280;60657;50.122;14.468;2022-12-19T03:04:51;99843.80019945835;;;-4.862287327382312;80.86961165789273
71642;BME280;60657;50.122;14.468;2022-12-19T03:08:12;99846.1137094258;;;-4.894331273365374;80.92111085679407
71642;BME280;60657;50.122;14.468;2022-12-19T03:11:33;99833.78889715289;;;-4.688715953307394;80.5796902418555
71642;BME280;60657;50.122;14.468;2022-12-19T03:14:47;99828.51238789957;;;-4.664682993820094;80.42137788967727
71642;BME280;60657;50.122;14.468;2022-12-19T03:17:58;99819.51029009005;;;-4.637979705500875;80.26306553749905
71642;BME280;60657;50.122;14.468;2022-12-19T03:21:10;99829.56138296495;;;-4.579232471198594;80.11429007400626
71642;BME280;60657;50.122;14.468;2022-12-19T03:24:27;99836.98099349992;;;-4.501792935072864;79.92927443350881
71642;BME280;60657;50.122;14.468;2022-12-19T03:27:36;99828.55683389198;;;-4.424353398947126;80.04371709773403
71642;BME280;60657;50.122;14.468;2022-12-19T03:30:47;99821.368174286;;;-4.4644083314259575;79.96742198825055
71642;BME280;60657;50.122;14.468;2022-12-19T03:33:59;99827.08787672938;;;-4.424353398947126;79.9006637674525
71642;BME280;60657;50.122;14.468;2022-12-19T03:37:12;99829.56138296495;;;-4.49645227740902;79.9597924773022
71642;BME280;60657;50.122;14.468;2022-12-19T03:40:25;99828.44105545395;;;-4.400320439459833;80.11047531853208
71642;BME280;60657;50.122;14.468;2022-12-19T03:43:35;99825.27196925173;;;-4.421683070115208;79.94071869993134
71642;BME280;60657;50.122;14.468;2022-12-19T03:46:48;99831.95749563703;;;-4.427023727779051;79.99603265430686
71642;BME280;60657;50.122;14.468;2022-12-19T03:50:06;99830.47778093637;;;-4.65934233615625;80.3298237582971
71642;BME280;60657;50.122;14.468;2022-12-19T03:53:20;99831.18006723169;;;-4.603265430685894;80.68459601739528
71642;BME280;60657;50.122;14.468;2022-12-19T03:56:43;99830.94628776469;;;-4.613946746013582;80.22110322728314
71642;BME280;60657;50.122;14.468;2022-12-19T04:00:01;99843.70112791233;;;-4.555199511711301;80.31265735866332
71642;BME280;60657;50.122;14.468;2022-12-19T04:03:14;99856.65764576418;;;-4.752803845273519;80.55680170901046
71642;BME280;60657;50.122;14.468;2022-12-19T04:06:24;99863.084215402;;;-4.619287403677426;81.08705271992065
71642;BME280;60657;50.122;14.468;2022-12-19T04:09:37;99856.98638847395;;;-4.584573128862438;80.72083619439994
71642;BME280;60657;50.122;14.468;2022-12-19T04:12:52;99856.45695183077;;;-4.435034714274813;80.60639353017471
71642;BME280;60657;50.122;14.468;2022-12-19T04:16:11;99856.30571267003;;;-4.41100175478752;80.6102082856489
71642;BME280;60657;50.122;14.468;2022-12-19T04:19:33;99858.70272009897;;;-4.317540245670251;80.3298237582971
71642;BME280;60657;50.122;14.468;2022-12-19T04:22:49;99856.84524071161;;;-4.216067750057221;79.96742198825055
71642;BME280;60657;50.122;14.468;2022-12-19T04:26:03;99841.07824884147;;;-4.360265506981001;80.33173113603418
71642;BME280;60657;50.122;14.468;2022-12-19T04:29:14;99830.09996060665;;;-4.304188601510646;80.33363851377126
71642;BME280;60657;50.122;14.468;2022-12-19T04:32:25;99828.6725332476;;;-4.349584191653314;80.36034180209049
71642;BME280;60657;50.122;14.468;2022-12-19T04:35:36;99819.97665795054;;;-4.459067673762114;80.66552224002442
71642;BME280;60657;50.122;14.468;2022-12-19T04:38:45;99825.04043570226;;;-4.338902876325626;80.7856870374609
71642;BME280;60657;50.122;14.468;2022-12-19T04:41:53;99816.56904073036;;;-4.309529259174489;80.74944686045625
71642;BME280;60657;50.122;14.468;2022-12-19T04:45:02;99810.34227232882;;;-4.240100709544521;80.60257877470055
71642;BME280;60657;50.122;14.468;2022-12-19T04:48:11;99808.13545033646;;;-4.192034790569927;80.42137788967727
71642;BME280;60657;50.122;14.468;2022-12-19T04:51:20;99799.75103267952;;;-4.213397421225302;80.71320668345159
71642;BME280;60657;50.122;14.468;2022-12-19T04:54:28;99788.65176297037;;;-4.135957885099565;80.63118944075684
71642;BME280;60657;50.122;14.468;2022-12-19T04:57:36;99792.15092217863;;;-4.427023727779051;80.92111085679407
71642;BME280;60657;50.122;14.468;2022-12-19T05:00:45;99793.6880307181;;;-4.304188601510646;81.15762569619288
71642;BME280;60657;50.122;14.468;2022-12-19T05:03:53;99802.1863602399;;;-4.272144655527583;81.39795529106584
71642;BME280;60657;50.122;14.468;2022-12-19T05:07:01;99795.16731421124;;;-4.127946898603803;81.22247653925383
71642;BME280;60657;50.122;14.468;2022-12-19T05:10:10;99795.3339374812;;;-3.983749141680015;80.68459601739528
71642;BME280;60657;50.122;14.468;2022-12-19T05:13:18;99787.62416977668;;;-3.9810788128480965;80.5644312199588
71642;BME280;60657;50.122;14.468;2022-12-19T05:16:28;99788.87437810416;;;-4.061188677805752;80.57396810864424
71642;BME280;60657;50.122;14.468;2022-12-19T05:19:37;99787.175193285;;;-3.9517051956969524;80.48050659952698
71642;BME280;60657;50.122;14.468;2022-12-19T05:22:45;99793.23473009079;;;-3.9063096055542843;80.39085984588388
71642;BME280;60657;50.122;14.468;2022-12-19T05:25:55;99795.61978574711;;;-3.9757381551842528;80.64835584039064
71642;BME280;60657;50.122;14.468;2022-12-19T05:29:04;99803.38004752973;;;-3.991760128175784;80.60639353017471
71642;BME280;60657;50.122;14.468;2022-12-19T05:32:12;99810.17798067372;;;-3.925001907377734;80.63881895170519
71642;BME280;60657;50.122;14.468;2022-12-19T05:35:21;99817.54492043791;;;-3.9810788128480965;80.63118944075684
71642;BME280;60657;50.122;14.468;2022-12-19T05:38:29;99818.22439245865;;;-3.8769359884031402;80.5949492637522
71642;BME280;60657;50.122;14.468;2022-12-19T05:41:38;99808.98956372081;;;-3.9169909208819718;80.63881895170519
71642;BME280;60657;50.122;14.468;2022-12-19T05:44:46;99810.17798067372;;;-3.844892042420078;80.59685664148928
71642;BME280;60657;50.122;14.468;2022-12-19T05:47:55;99808.59120647798;;;-3.860914015411609;80.41374837872893
71642;BME280;60657;50.122;14.468;2022-12-19T05:51:04;99798.95750844317;;;-3.8181887541008592;80.78759441519799
71642;BME280;60657;50.122;14.468;2022-12-19T05:54:13;99813.35142778528;;;-3.9089799343862026;80.89250019073778
71642;BME280;60657;50.122;14.468;2022-12-19T05:57:22;99807.40300088743;;;-3.9597161821927216;80.8581673914702
71642;BME280;60657;50.122;14.468;2022-12-19T06:00:30;99810.4519371555;;;-3.7968261234454843;80.87533379110398
71642;BME280;60657;50.122;14.468;2022-12-19T06:03:39;99816.68896704237;;;-3.7968261234454843;80.65598535133898
71642;BME280;60657;50.122;14.468;2022-12-19T06:06:49;99813.06513961407;;;-3.786144808117797;80.67696650644693
71642;BME280;60657;50.122;14.468;2022-12-19T06:09:58;99803.18300879536;;;-3.641947051194016;80.70176241702907
71642;BME280;60657;50.122;14.468;2022-12-19T06:13:06;99813.44818938982;;;-3.6793316548409223;80.80666819256885
71642;BME280;60657;50.122;14.468;2022-12-19T06:16:15;99804.25474615885;;;-3.5645075150682857;80.48241397726406
71642;BME280;60657;50.122;14.468;2022-12-19T06:19:25;99805.6205273105;;;-3.655298695353629;80.83527885862516
71642;BME280;60657;50.122;14.468;2022-12-19T06:22:34;99825.60572915035;;;-3.545815213244829;80.75326161593041
71642;BME280;60657;50.122;14.468;2022-12-19T06:25:42;99832.18156033254;;;-3.521782253757536;80.98596169985504
71642;BME280;60657;50.122;14.468;2022-12-19T06:28:51;99821.17120473986;;;-3.4149691004806613;80.2249179827573
71642;BME280;60657;50.122;14.468;2022-12-19T06:31:59;99810.64491999522;;;-3.4737163347829423;80.20584420538644
71642;BME280;60657;50.122;14.468;2022-12-19T06:35:08;99811.86047046423;;;-3.64728770885786;80.58541237506675
71642;BME280;60657;50.122;14.468;2022-12-19T06:38:16;99814.85501438369;;;-3.596551461051348;80.49004348821241
71642;BME280;60657;50.122;14.468;2022-12-19T06:41:25;99815.96336645112;;;-3.4176394293125796;80.31265735866332
71642;BME280;60657;50.122;14.468;2022-12-19T06:44:36;99814.26424027896;;;-3.436331731136036;79.87777523460745
71642;BME280;60657;50.122;14.468;2022-12-19T06:47:45;99828.89362146778;;;-3.4336614023041108;80.18486305027848
71642;BME280;60657;50.122;14.468;2022-12-19T06:50:53;99827.377663611;;;-3.5618371862363603;80.48241397726406
71642;BME280;60657;50.122;14.468;2022-12-19T06:54:02;99829.41056239855;;;-3.529793240253298;80.27260242618448
71642;BME280;60657;50.122;14.468;2022-12-19T06:57:10;99831.91884013063;;;-3.567177843900204;80.23826962691692
71642;BME280;60657;50.122;14.468;2022-12-19T07:00:19;99822.61306254996;;;-3.4737163347829423;80.24780651560235
71642;BME280;60657;50.122;14.468;2022-12-19T07:03:28;99809.05643135573;;;-3.492408636606392;80.13336385137713
71642;BME280;60657;50.122;14.468;2022-12-19T07:06:43;99820.17514241234;;;-3.524452582589454;80.25162127107653
71642;BME280;60657;50.122;14.468;2022-12-19T07:09:52;99805.2809492783;;;-3.412298771648736;80.6826886396582
71642;BME280;60657;50.122;14.468;2022-12-19T07:13:00;99800.86324023947;;;-3.3802548256656735;80.28595407034409
71642;BME280;60657;50.122;14.468;2022-12-19T07:16:09;99814.23544736039;;;-3.33218890669108;80.39467460135805
71642;BME280;60657;50.122;14.468;2022-12-19T07:19:17;99801.51340423938;;;-3.2761120012207243;80.22682536049439
71642;BME280;60657;50.122;14.468;2022-12-19T07:22:28;99794.3023803153;;;-3.2547493705653494;80.13145647364004
71642;BME280;60657;50.122;14.468;2022-12-19T07:25:41;99797.37529470511;;;-3.1666285191119243;79.99603265430686
71642;BME280;60657;50.122;14.468;2022-12-19T07:28:50;99810.11419347247;;;-3.089188982986194;79.8720531013962
71642;BME280;60657;50.122;14.468;2022-12-19T07:31:58;99809.91133834304;;;-3.009079118028538;79.65270466163119
71642;BME280;60657;50.122;14.468;2022-12-19T07:35:09;99821.38088103308;;;-2.9076066224155;79.69085221637293
71642;BME280;60657;50.122;14.468;2022-12-19T07:38:18;99827.43677394306;;;-2.7874418249790196;79.27313649195086
71642;BME280;60657;50.122;14.468;2022-12-19T07:41:27;99836.67231819431;;;-2.7420462348363444;79.07476920729381
71642;BME280;60657;50.122;14.468;2022-12-19T07:44:35;99844.42231182453;;;-2.65926604104677;79.00610360875868
71642;BME280;60657;50.122;14.468;2022-12-19T07:47:44;99839.9589496493;;;-2.7954528114747816;79.28839551384756
71642;BME280;60657;50.122;14.468;2022-12-19T07:50:52;99829.3377416394;;;-2.782101167315176;79.73472190432594
71642;BME280;60657;50.122;14.468;2022-12-19T07:54:03;99834.433928087;;;-2.782101167315176;79.36469062333104
71642;BME280;60657;50.122;14.468;2022-12-19T07:57:12;99829.98079915394;;;-2.6485847257190827;79.0633249408713
71642;BME280;60657;50.122;14.468;2022-12-19T08:00:20;99845.58343705552;;;-2.6485847257190827;78.86495765621423
71642;BME280;60657;50.122;14.468;2022-12-19T08:03:30;99848.7733675422;;;-2.5658045319295013;78.72190432593271
71642;BME280;60657;50.122;14.468;2022-12-19T08:06:38;99847.39436648408;;;-2.4937056534676145;78.55214770733195
71642;BME280;60657;50.122;14.468;2022-12-19T08:09:47;99847.49650895002;;;-2.6272220950637077;78.8401617456321
71642;BME280;60657;50.122;14.468;2022-12-19T08:12:55;99843.56259287123;;;-2.7447165636682698;79.08239871824216
71642;BME280;60657;50.122;14.468;2022-12-19T08:16:04;99840.06592029119;;;-2.6539253833829264;79.15869382772564
71642;BME280;60657;50.122;14.468;2022-12-19T08:19:13;99842.82770068596;;;-2.643244068055239;79.28839551384756
71642;BME280;60657;50.122;14.468;2022-12-19T08:22:21;99838.89538242893;;;-2.6832990005340633;79.08812085145343
71642;BME280;60657;50.122;14.468;2022-12-19T08:25:30;99837.30377356459;;;-2.667277027542532;79.36469062333104
71642;BME280;60657;50.122;14.468;2022-12-19T08:28:38;99832.63561972103;;;-2.6485847257190827;79.27504386968795
71642;BME280;60657;50.122;14.468;2022-12-19T08:31:47;99824.67623360065;;;-2.571145189593345;79.30365453574426
71642;BME280;60657;50.122;14.468;2022-12-19T08:34:55;99811.40853182074;;;-2.6192111085679386;79.21400778210116
71642;BME280;60657;50.122;14.468;2022-12-19T08:38:06;99798.46032426132;;;-2.59250782024872;79.51346608682384
71642;BME280;60657;50.122;14.468;2022-12-19T08:41:14;99785.30016392861;;;-2.696650644693676;79.27122911421378
71642;BME280;60657;50.122;14.468;2022-12-19T08:44:24;99776.49049498825;;;-2.86488136110475;79.56878004119936
71642;BME280;60657;50.122;14.468;2022-12-19T08:47:32;99775.85489213097;;;-2.7714198519874884;79.7537956816968
71642;BME280;60657;50.122;14.468;2022-12-19T08:50:47;99763.12334630867;;;-2.806134126802469;79.82436865796902
71642;BME280;60657;50.122;14.468;2022-12-19T08:53:56;99751.45042718692;;;-2.9102769512474254;79.58403906309606
71642;BME280;60657;50.122;14.468;2022-12-19T08:57:04;99749.21846740862;;;-2.9476615548943315;79.6069275959411
71642;BME280;60657;50.122;14.468;2022-12-19T09:00:13;99750.59465203539;;;-2.995727473868925;79.98840314335851
71642;BME280;60657;50.122;14.468;2022-12-19T09:03:23;99742.96246977302;;;-3.033112077515831;80.13145647364004
71642;BME280;60657;50.122;14.468;2022-12-19T09:06:31;99740.83733700177;;;-2.982375829709312;80.20393682764934
71642;BME280;60657;50.122;14.468;2022-12-19T09:09:40;99724.08170642004;;;-2.9690241855497064;80.42328526741436
71642;BME280;60657;50.122;14.468;2022-12-19T09:12:48;99722.59617454291;;;-2.899595635919738;80.17914091706722
71642;BME280;60657;50.122;14.468;2022-12-19T09:15:58;99713.57203545875;;;-2.7340352483405823;80.17723353933013
71642;BME280;60657;50.122;14.468;2022-12-19T09:19:08;99715.67277521567;;;-2.584496833752958;80.03227283131152
71642;BME280;60657;50.122;14.468;2022-12-19T09:22:17;99721.05197842437;;;-2.3922331578545837;79.84153505760281
71642;BME280;60657;50.122;14.468;2022-12-19T09:25:25;99720.68744612104;;;-2.2240024414435027;79.26359960326543
71642;BME280;60657;50.122;14.468;2022-12-19T09:28:34;99706.89959768449;;;-1.9462882429236288;79.0766765850309
71642;BME280;60657;50.122;14.468;2022-12-19T09:31:43;99711.53946681788;;;-1.9008926527809535;78.41481651026169
71642;BME280;60657;50.122;14.468;2022-12-19T09:34:52;99695.7188338404;;;-1.625848783093005;77.8540474555581
71642;BME280;60657;50.122;14.468;2022-12-19T09:38:00;99694.31846406293;;;-1.5564202334630366;77.66521705958648
71642;BME280;60657;50.122;14.468;2022-12-19T09:41:17;99697.57463543252;;;-1.3748378728923498;77.19409475852598
71642;BME280;60657;50.122;14.468;2022-12-19T09:44:46;99696.94088548435;;;-1.2226291294728;76.59327077134355
71642;BME280;60657;50.122;14.468;2022-12-19T09:48:18;99680.75957098741;;;-1.1238269626916946;76.51125352864881
71642;BME280;60657;50.122;14.468;2022-12-19T09:51:34;99671.07632466224;;;-0.90753032730602;76.02868696116579
71642;BME280;60657;50.122;14.468;2022-12-19T09:54:56;99672.29794246127;;;-0.8033875028610638;75.66628519111924
71642;BME280;60657;50.122;14.468;2022-12-19T09:58:13;99662.31093740044;;;-0.6992446784161146;75.26955062180514
71642;BME280;60657;50.122;14.468;2022-12-19T10:01:47;99660.87685813793;;;-0.5550469214923339;75.03112840466926
71642;BME280;60657;50.122;14.468;2022-12-19T10:05:11;99671.95145445029;;;-0.3681239032578034;74.7011520561532
71642;BME280;60657;50.122;14.468;2022-12-19T10:08:27;99685.73681950691;;;-0.12779430838483563;73.72457465476462
71642;BME280;60657;50.122;14.468;2022-12-19T10:11:47;99690.0172108426;;;-0.007629510948348184;73.46517128252079
71642;BME280;60657;50.122;14.468;2022-12-19T10:15:11;99677.67252332144;;;0.016403448538952148;72.77851529716945
71642;BME280;60657;50.122;14.468;2022-12-19T10:18:36;99679.89650185648;;;0.08049134050507689;73.01884489204242
71642;BME280;60657;50.122;14.468;2022-12-19T10:21:59;99697.41109788115;;;0.14457923247120164;72.69459067673762
71642;BME280;60657;50.122;14.468;2022-12-19T10:25:25;99700.35554842716;;;0.1926451514457952;72.24635690852216
71642;BME280;60657;50.122;14.468;2022-12-19T10:28:48;99707.97643384492;;;0.2300297550927013;72.24826428625926
71642;BME280;60657;50.122;14.468;2022-12-19T10:32:14;99700.30364570433;;;0.29678797589074435;72.04608224612802
71642;BME280;60657;50.122;14.468;2022-12-19T10:35:33;99685.87678563224;;;0.46234836346989994;71.9468986037995
71642;BME280;60657;50.122;14.468;2022-12-19T10:38:46;99691.45538272981;;;0.4703593499656691;71.92210269321737
71642;BME280;60657;50.122;14.468;2022-12-19T10:42:08;99694.16838160163;;;0.4943923094529623;71.77523460746166
71642;BME280;60657;50.122;14.468;2022-12-19T10:45:26;99674.4714279304;;;0.6279087510490555;71.55207141222247
71642;BME280;60657;50.122;14.468;2022-12-19T10:48:41;99683.36026413277;;;0.7080186160067115;71.28122377355612
71642;BME280;60657;50.122;14.468;2022-12-19T10:51:55;99678.44623859835;;;0.5718318455786999;71.22018768596934
71642;BME280;60657;50.122;14.468;2022-12-19T10:55:11;99686.06327312195;;;0.6225680933852118;71.3136491950866
71642;BME280;60657;50.122;14.468;2022-12-19T10:58:32;99685.30247797188;;;0.5985351338979186;71.5349050125887
71642;BME280;60657;50.122;14.468;2022-12-19T11:01:43;99677.69113099299;;;0.4730296787975874;71.26405737392233
71642;BME280;60657;50.122;14.468;2022-12-19T11:04:53;99670.58142845763;;;0.4543373769741379;72.11474784466316
71642;BME280;60657;50.122;14.468;2022-12-19T11:08:02;99669.73520712175;;;0.5291065842679501;72.12046997787442
71642;BME280;60657;50.122;14.468;2022-12-19T11:11:23;99665.8443695463;;;0.5985351338979186;71.39375906004425
71642;BME280;60657;50.122;14.468;2022-12-19T11:14:32;99662.542875515;;;0.6839856565194182;71.76188296330206
71642;BME280;60657;50.122;14.468;2022-12-19T11:17:42;99665.92921840449;;;0.6919966430151803;71.41474021515221
71642;BME280;60657;50.122;14.468;2022-12-19T11:20:53;99669.98952076747;;;0.6946669718471057;71.61501487754634
71642;BME280;60657;50.122;14.468;2022-12-19T11:24:05;99659.32662347364;;;0.7213702601663243;71.74471656366826
71642;BME280;60657;50.122;14.468;2022-12-19T11:27:30;99654.58565495262;;;0.6572823682001996;72.42565041580835
71642;BME280;60657;50.122;14.468;2022-12-19T11:30:53;99662.03233523434;;;0.8014801251239803;71.68940260929274
71642;BME280;60657;50.122;14.468;2022-12-19T11:34:06;99652.47449991229;;;0.5931944762340748;72.22919050888838